sensor_id;sensor_type;location;lat;lon;timestamp;P1;durP1;ratioP1;P2;durP2;ratioP2
1725;SDS011;41776;48.260;8.928;2022-12-07T00:00:50;18.30;;;8.67;;
1725;SDS011;41776;48.260;8.928;2022-12-07T00:03:17;23.67;;;9.77;;
1725;SDS011;41776;48.260;8.928;2022-12-07T00:05:45;20.43;;;9.43;;
1725;SDS011;41776;48.260;8.928;2022-12-07T00:08:11;22.87;;;8.83;;
1725;SDS011;41776;48.260;8.928;2022-12-07T00:10:38;21.97;;;9.77;;
1725;SDS011;41776;48.260;8.928;2022-12-07T00:13:04;18.07;;;9.37;;
1725;SDS011;41776;48.260;8.928;2022-12-07T00:15:33;21.10;;;9.43;;
1725;SDS011;41776;48.260;8.928;2022-12-07T00:17:59;24.00;;;9.87;;
1725;SDS011;41776;48.260;8.928;2022-12-07T00:20:26;25.07;;;10.23;;
1725;SDS011;41776;48.260;8.928;2022-12-07T00:22:54;20.63;;;9.07;;
1725;SDS011;41776;48.260;8.928;2022-12-07T00:25:20;23.33;;;9.63;;
1725;SDS011;41776;48.260;8.928;2022-12-07T00:27:47;22.40;;;10.10;;
1725;SDS011;41776;48.260;8.928;2022-12-07T00:30:14;24.47;;;9.90;;
1725;SDS011;41776;48.260;8.928;2022-12-07T00:32:40;22.70;;;8.97;;
1725;SDS011;41776;48.260;8.928;2022-12-07T00:35:07;19.70;;;8.90;;
1725;SDS011;41776;48.260;8.928;2022-12-07T00:37:34;24.67;;;9.30;;
1725;SDS011;41776;48.260;8.928;2022-12-07T00:40:02;24.37;;;10.47;;
1725;SDS011;41776;48.260;8.928;2022-12-07T00:42:29;22.60;;;9.33;;
1725;SDS011;41776;48.260;8.928;2022-12-07T00:44:55;23.07;;;9.40;;
1725;SDS011;41776;48.260;8.928;2022-12-07T00:47:22;22.57;;;9.23;;
1725;SDS011;41776;48.260;8.928;2022-12-07T00:49:48;22.77;;;9.80;;
1725;SDS011;41776;48.260;8.928;2022-12-07T00:52:15;26.13;;;10.70;;
1725;SDS011;41776;48.260;8.928;2022-12-07T00:54:41;27.17;;;11.98;;
1725;SDS011;41776;48.260;8.928;2022-12-07T00:57:09;26.13;;;9.70;;
1725;SDS011;41776;48.260;8.928;2022-12-07T00:59:36;27.13;;;11.13;;
1725;SDS011;41776;48.260;8.928;2022-12-07T01:02:02;28.13;;;11.17;;
1725;SDS011;41776;48.260;8.928;2022-12-07T01:04:29;23.73;;;10.13;;
1725;SDS011;41776;48.260;8.928;2022-12-07T01:06:55;26.40;;;12.65;;
1725;SDS011;41776;48.260;8.928;2022-12-07T01:09:22;24.00;;;10.77;;
1725;SDS011;41776;48.260;8.928;2022-12-07T01:11:49;21.37;;;9.27;;
1725;SDS011;41776;48.260;8.928;2022-12-07T01:14:16;21.43;;;8.43;;
1725;SDS011;41776;48.260;8.928;2022-12-07T01:16:43;23.77;;;8.63;;
1725;SDS011;41776;48.260;8.928;2022-12-07T01:19:09;25.97;;;10.37;;
1725;SDS011;41776;48.260;8.928;2022-12-07T01:21:36;25.43;;;11.07;;
1725;SDS011;41776;48.260;8.928;2022-12-07T01:24:05;22.77;;;9.93;;
1725;SDS011;41776;48.260;8.928;2022-12-07T01:26:33;21.10;;;8.47;;
1725;SDS011;41776;48.260;8.928;2022-12-07T01:29:00;22.33;;;10.13;;
1725;SDS011;41776;48.260;8.928;2022-12-07T01:31:28;22.53;;;9.30;;
1725;SDS011;41776;48.260;8.928;2022-12-07T01:33:56;20.70;;;9.43;;
1725;SDS011;41776;48.260;8.928;2022-12-07T01:36:24;23.87;;;10.20;;
1725;SDS011;41776;48.260;8.928;2022-12-07T01:38:53;21.13;;;8.80;;
1725;SDS011;41776;48.260;8.928;2022-12-07T01:41:22;27.30;;;9.87;;
1725;SDS011;41776;48.260;8.928;2022-12-07T01:46:37;21.97;;;10.27;;
1725;SDS011;41776;48.260;8.928;2022-12-07T01:49:04;21.03;;;8.77;;
1725;SDS011;41776;48.260;8.928;2022-12-07T01:51:34;19.37;;;8.63;;
1725;SDS011;41776;48.260;8.928;2022-12-07T01:54:04;22.83;;;9.20;;
1725;SDS011;41776;48.260;8.928;2022-12-07T01:56:31;23.03;;;9.57;;
1725;SDS011;41776;48.260;8.928;2022-12-07T01:58:58;18.87;;;8.80;;
1725;SDS011;41776;48.260;8.928;2022-12-07T02:01:26;19.70;;;8.97;;
1725;SDS011;41776;48.260;8.928;2022-12-07T02:03:55;24.70;;;9.90;;
1725;SDS011;41776;48.260;8.928;2022-12-07T02:06:22;26.33;;;9.47;;
1725;SDS011;41776;48.260;8.928;2022-12-07T02:08:51;31.67;;;11.13;;
1725;SDS011;41776;48.260;8.928;2022-12-07T02:11:19;29.27;;;10.93;;
1725;SDS011;41776;48.260;8.928;2022-12-07T02:13:47;25.87;;;10.60;;
1725;SDS011;41776;48.260;8.928;2022-12-07T02:16:17;27.53;;;10.97;;
1725;SDS011;41776;48.260;8.928;2022-12-07T02:19:02;24.53;;;9.17;;
1725;SDS011;41776;48.260;8.928;2022-12-07T02:21:51;20.73;;;8.77;;
1725;SDS011;41776;48.260;8.928;2022-12-07T02:24:31;21.80;;;8.60;;
1725;SDS011;41776;48.260;8.928;2022-12-07T02:27:24;17.87;;;8.57;;
1725;SDS011;41776;48.260;8.928;2022-12-07T02:30:02;18.80;;;8.97;;
1725;SDS011;41776;48.260;8.928;2022-12-07T02:32:32;21.53;;;9.03;;
1725;SDS011;41776;48.260;8.928;2022-12-07T02:35:09;23.90;;;9.17;;
1725;SDS011;41776;48.260;8.928;2022-12-07T02:37:42;23.50;;;10.23;;
1725;SDS011;41776;48.260;8.928;2022-12-07T02:40:19;28.30;;;10.13;;
1725;SDS011;41776;48.260;8.928;2022-12-07T02:42:51;26.77;;;10.50;;
1725;SDS011;41776;48.260;8.928;2022-12-07T02:45:22;24.50;;;9.20;;
1725;SDS011;41776;48.260;8.928;2022-12-07T02:47:53;27.33;;;11.53;;
1725;SDS011;41776;48.260;8.928;2022-12-07T02:50:24;26.60;;;11.37;;
1725;SDS011;41776;48.260;8.928;2022-12-07T02:52:52;28.50;;;11.73;;
1725;SDS011;41776;48.260;8.928;2022-12-07T02:55:19;27.67;;;11.83;;
1725;SDS011;41776;48.260;8.928;2022-12-07T02:58:05;26.50;;;11.20;;
1725;SDS011;41776;48.260;8.928;2022-12-07T03:00:44;27.50;;;11.50;;
1725;SDS011;41776;48.260;8.928;2022-12-07T03:03:18;25.50;;;10.83;;
1725;SDS011;41776;48.260;8.928;2022-12-07T03:05:57;22.97;;;10.47;;
1725;SDS011;41776;48.260;8.928;2022-12-07T03:08:33;25.63;;;10.37;;
1725;SDS011;41776;48.260;8.928;2022-12-07T03:11:10;29.90;;;11.17;;
1725;SDS011;41776;48.260;8.928;2022-12-07T03:13:40;28.40;;;11.30;;
1725;SDS011;41776;48.260;8.928;2022-12-07T03:16:14;26.27;;;11.37;;
1725;SDS011;41776;48.260;8.928;2022-12-07T03:18:44;28.80;;;10.83;;
1725;SDS011;41776;48.260;8.928;2022-12-07T03:21:16;23.07;;;9.37;;
1725;SDS011;41776;48.260;8.928;2022-12-07T03:23:47;26.03;;;10.87;;
1725;SDS011;41776;48.260;8.928;2022-12-07T03:26:17;28.90;;;11.00;;
1725;SDS011;41776;48.260;8.928;2022-12-07T03:28:47;29.63;;;10.53;;
1725;SDS011;41776;48.260;8.928;2022-12-07T03:31:20;31.00;;;10.77;;
1725;SDS011;41776;48.260;8.928;2022-12-07T03:33:52;29.57;;;11.07;;
1725;SDS011;41776;48.260;8.928;2022-12-07T03:36:25;30.63;;;11.43;;
1725;SDS011;41776;48.260;8.928;2022-12-07T03:38:57;26.20;;;10.43;;
1725;SDS011;41776;48.260;8.928;2022-12-07T03:41:31;26.57;;;9.83;;
1725;SDS011;41776;48.260;8.928;2022-12-07T03:44:01;27.67;;;10.90;;
1725;SDS011;41776;48.260;8.928;2022-12-07T03:46:31;26.30;;;10.27;;
1725;SDS011;41776;48.260;8.928;2022-12-07T03:49:05;28.60;;;11.73;;
1725;SDS011;41776;48.260;8.928;2022-12-07T03:51:38;30.60;;;11.23;;
1725;SDS011;41776;48.260;8.928;2022-12-07T03:54:10;28.50;;;10.00;;
1725;SDS011;41776;48.260;8.928;2022-12-07T03:56:40;22.17;;;9.53;;
1725;SDS011;41776;48.260;8.928;2022-12-07T03:59:08;19.53;;;8.23;;
1725;SDS011;41776;48.260;8.928;2022-12-07T04:01:38;18.00;;;7.10;;
1725;SDS011;41776;48.260;8.928;2022-12-07T04:04:04;24.60;;;9.77;;
1725;SDS011;41776;48.260;8.928;2022-12-07T04:06:31;23.00;;;9.70;;
1725;SDS011;41776;48.260;8.928;2022-12-07T04:08:57;21.93;;;10.10;;
1725;SDS011;41776;48.260;8.928;2022-12-07T04:11:24;22.77;;;9.13;;
1725;SDS011;41776;48.260;8.928;2022-12-07T04:13:50;29.90;;;10.57;;
1725;SDS011;41776;48.260;8.928;2022-12-07T04:16:34;22.57;;;9.70;;
1725;SDS011;41776;48.260;8.928;2022-12-07T04:19:02;22.10;;;9.43;;
1725;SDS011;41776;48.260;8.928;2022-12-07T04:21:29;23.50;;;8.90;;
1725;SDS011;41776;48.260;8.928;2022-12-07T04:23:55;10.70;;;5.20;;
1725;SDS011;41776;48.260;8.928;2022-12-07T04:26:22;8.87;;;4.33;;
1725;SDS011;41776;48.260;8.928;2022-12-07T04:28:48;8.70;;;4.63;;
1725;SDS011;41776;48.260;8.928;2022-12-07T04:31:15;6.77;;;3.80;;
1725;SDS011;41776;48.260;8.928;2022-12-07T04:33:41;5.90;;;3.30;;
1725;SDS011;41776;48.260;8.928;2022-12-07T04:36:09;10.37;;;5.17;;
1725;SDS011;41776;48.260;8.928;2022-12-07T04:38:35;13.27;;;5.70;;
1725;SDS011;41776;48.260;8.928;2022-12-07T04:41:04;12.90;;;6.10;;
1725;SDS011;41776;48.260;8.928;2022-12-07T04:43:31;11.83;;;6.30;;
1725;SDS011;41776;48.260;8.928;2022-12-07T04:45:58;12.37;;;5.63;;
1725;SDS011;41776;48.260;8.928;2022-12-07T04:48:25;13.30;;;6.73;;
1725;SDS011;41776;48.260;8.928;2022-12-07T04:50:51;25.63;;;8.83;;
1725;SDS011;41776;48.260;8.928;2022-12-07T04:53:19;19.43;;;8.53;;
1725;SDS011;41776;48.260;8.928;2022-12-07T04:55:46;37.77;;;9.60;;
1725;SDS011;41776;48.260;8.928;2022-12-07T04:58:12;33.73;;;10.90;;
1725;SDS011;41776;48.260;8.928;2022-12-07T05:00:39;27.20;;;9.93;;
1725;SDS011;41776;48.260;8.928;2022-12-07T05:03:06;58.97;;;12.13;;
1725;SDS011;41776;48.260;8.928;2022-12-07T05:05:32;31.17;;;9.90;;
1725;SDS011;41776;48.260;8.928;2022-12-07T05:07:59;25.83;;;11.17;;
1725;SDS011;41776;48.260;8.928;2022-12-07T05:10:27;23.40;;;10.13;;
1725;SDS011;41776;48.260;8.928;2022-12-07T05:12:53;27.73;;;10.20;;
1725;SDS011;41776;48.260;8.928;2022-12-07T05:15:20;24.83;;;10.77;;
1725;SDS011;41776;48.260;8.928;2022-12-07T05:17:46;26.53;;;10.13;;
1725;SDS011;41776;48.260;8.928;2022-12-07T05:20:13;30.43;;;11.47;;
1725;SDS011;41776;48.260;8.928;2022-12-07T05:22:39;28.13;;;10.80;;
1725;SDS011;41776;48.260;8.928;2022-12-07T05:25:06;30.40;;;11.97;;
1725;SDS011;41776;48.260;8.928;2022-12-07T05:27:35;29.97;;;11.13;;
1725;SDS011;41776;48.260;8.928;2022-12-07T05:30:01;27.30;;;11.00;;
1725;SDS011;41776;48.260;8.928;2022-12-07T05:32:28;30.17;;;12.00;;
1725;SDS011;41776;48.260;8.928;2022-12-07T05:34:55;26.37;;;12.03;;
1725;SDS011;41776;48.260;8.928;2022-12-07T05:37:21;28.37;;;10.93;;
1725;SDS011;41776;48.260;8.928;2022-12-07T05:39:49;26.40;;;11.10;;
1725;SDS011;41776;48.260;8.928;2022-12-07T05:42:15;29.03;;;11.23;;
1725;SDS011;41776;48.260;8.928;2022-12-07T05:44:43;29.10;;;12.17;;
1725;SDS011;41776;48.260;8.928;2022-12-07T05:47:11;23.07;;;11.00;;
1725;SDS011;41776;48.260;8.928;2022-12-07T05:49:39;25.27;;;10.80;;
1725;SDS011;41776;48.260;8.928;2022-12-07T05:52:05;23.10;;;11.07;;
1725;SDS011;41776;48.260;8.928;2022-12-07T05:54:32;27.43;;;11.70;;
1725;SDS011;41776;48.260;8.928;2022-12-07T05:56:59;21.90;;;9.43;;
1725;SDS011;41776;48.260;8.928;2022-12-07T05:59:26;26.97;;;10.80;;
1725;SDS011;41776;48.260;8.928;2022-12-07T06:01:54;28.60;;;10.43;;
1725;SDS011;41776;48.260;8.928;2022-12-07T06:04:22;22.47;;;9.67;;
1725;SDS011;41776;48.260;8.928;2022-12-07T06:06:49;24.13;;;10.37;;
1725;SDS011;41776;48.260;8.928;2022-12-07T06:09:17;20.80;;;9.30;;
1725;SDS011;41776;48.260;8.928;2022-12-07T06:11:44;22.80;;;10.17;;
1725;SDS011;41776;48.260;8.928;2022-12-07T06:14:29;19.87;;;9.10;;
1725;SDS011;41776;48.260;8.928;2022-12-07T06:16:57;23.27;;;9.30;;
1725;SDS011;41776;48.260;8.928;2022-12-07T06:19:23;19.53;;;8.83;;
1725;SDS011;41776;48.260;8.928;2022-12-07T06:21:50;25.80;;;9.47;;
1725;SDS011;41776;48.260;8.928;2022-12-07T06:24:17;21.30;;;8.77;;
1725;SDS011;41776;48.260;8.928;2022-12-07T06:26:44;21.27;;;8.57;;
1725;SDS011;41776;48.260;8.928;2022-12-07T06:29:11;21.37;;;9.00;;
1725;SDS011;41776;48.260;8.928;2022-12-07T06:31:38;22.03;;;9.33;;
1725;SDS011;41776;48.260;8.928;2022-12-07T06:34:08;21.97;;;9.27;;
1725;SDS011;41776;48.260;8.928;2022-12-07T06:36:36;19.30;;;8.67;;
1725;SDS011;41776;48.260;8.928;2022-12-07T06:39:03;35.07;;;11.40;;
1725;SDS011;41776;48.260;8.928;2022-12-07T06:41:31;26.42;;;12.15;;
1725;SDS011;41776;48.260;8.928;2022-12-07T06:43:58;19.20;;;8.30;;
1725;SDS011;41776;48.260;8.928;2022-12-07T06:46:25;22.70;;;8.27;;
1725;SDS011;41776;48.260;8.928;2022-12-07T06:48:51;19.37;;;8.43;;
1725;SDS011;41776;48.260;8.928;2022-12-07T06:51:19;19.30;;;8.43;;
1725;SDS011;41776;48.260;8.928;2022-12-07T06:53:46;12.53;;;6.00;;
1725;SDS011;41776;48.260;8.928;2022-12-07T06:56:12;14.43;;;6.17;;
1725;SDS011;41776;48.260;8.928;2022-12-07T06:58:39;9.97;;;4.60;;
1725;SDS011;41776;48.260;8.928;2022-12-07T07:01:08;11.17;;;5.20;;
1725;SDS011;41776;48.260;8.928;2022-12-07T07:03:36;13.77;;;6.37;;
1725;SDS011;41776;48.260;8.928;2022-12-07T07:06:02;11.93;;;5.20;;
1725;SDS011;41776;48.260;8.928;2022-12-07T07:08:31;12.00;;;5.53;;
1725;SDS011;41776;48.260;8.928;2022-12-07T07:10:57;11.60;;;4.80;;
1725;SDS011;41776;48.260;8.928;2022-12-07T07:13:24;12.07;;;5.60;;
1725;SDS011;41776;48.260;8.928;2022-12-07T07:15:50;11.80;;;5.00;;
1725;SDS011;41776;48.260;8.928;2022-12-07T07:18:17;12.80;;;5.57;;
1725;SDS011;41776;48.260;8.928;2022-12-07T07:20:43;16.37;;;5.63;;
1725;SDS011;41776;48.260;8.928;2022-12-07T07:23:10;18.50;;;5.30;;
1725;SDS011;41776;48.260;8.928;2022-12-07T07:25:38;13.63;;;5.80;;
1725;SDS011;41776;48.260;8.928;2022-12-07T07:28:05;17.00;;;5.53;;
1725;SDS011;41776;48.260;8.928;2022-12-07T07:30:32;16.45;;;6.80;;
1725;SDS011;41776;48.260;8.928;2022-12-07T07:32:58;14.40;;;5.20;;
1725;SDS011;41776;48.260;8.928;2022-12-07T07:35:25;12.73;;;5.17;;
1725;SDS011;41776;48.260;8.928;2022-12-07T07:37:53;12.23;;;5.30;;
1725;SDS011;41776;48.260;8.928;2022-12-07T07:40:21;13.43;;;5.43;;
1725;SDS011;41776;48.260;8.928;2022-12-07T07:42:51;17.13;;;5.80;;
1725;SDS011;41776;48.260;8.928;2022-12-07T07:45:18;20.00;;;6.53;;
1725;SDS011;41776;48.260;8.928;2022-12-07T07:47:46;15.37;;;6.40;;
1725;SDS011;41776;48.260;8.928;2022-12-07T07:50:12;17.37;;;6.97;;
1725;SDS011;41776;48.260;8.928;2022-12-07T07:52:40;17.43;;;7.37;;
1725;SDS011;41776;48.260;8.928;2022-12-07T07:55:07;19.00;;;6.73;;
1725;SDS011;41776;48.260;8.928;2022-12-07T07:57:34;19.70;;;6.43;;
1725;SDS011;41776;48.260;8.928;2022-12-07T08:00:03;20.33;;;7.40;;
1725;SDS011;41776;48.260;8.928;2022-12-07T08:02:31;21.67;;;8.03;;
1725;SDS011;41776;48.260;8.928;2022-12-07T08:04:57;15.07;;;6.87;;
1725;SDS011;41776;48.260;8.928;2022-12-07T08:07:24;22.80;;;9.95;;
1725;SDS011;41776;48.260;8.928;2022-12-07T08:09:51;20.97;;;7.60;;
1725;SDS011;41776;48.260;8.928;2022-12-07T08:12:17;15.50;;;7.50;;
1725;SDS011;41776;48.260;8.928;2022-12-07T08:14:44;19.10;;;8.10;;
1725;SDS011;41776;48.260;8.928;2022-12-07T08:17:11;16.03;;;7.40;;
1725;SDS011;41776;48.260;8.928;2022-12-07T08:19:38;20.53;;;8.33;;
1725;SDS011;41776;48.260;8.928;2022-12-07T08:22:05;16.87;;;7.63;;
1725;SDS011;41776;48.260;8.928;2022-12-07T08:24:33;17.23;;;7.80;;
1725;SDS011;41776;48.260;8.928;2022-12-07T08:26:59;17.50;;;7.53;;
1725;SDS011;41776;48.260;8.928;2022-12-07T08:29:26;18.13;;;7.20;;
1725;SDS011;41776;48.260;8.928;2022-12-07T08:31:52;14.57;;;6.07;;
1725;SDS011;41776;48.260;8.928;2022-12-07T08:34:20;12.03;;;6.07;;
1725;SDS011;41776;48.260;8.928;2022-12-07T08:36:47;14.87;;;7.77;;
1725;SDS011;41776;48.260;8.928;2022-12-07T08:39:16;14.17;;;7.03;;
1725;SDS011;41776;48.260;8.928;2022-12-07T08:41:42;13.97;;;6.80;;
1725;SDS011;41776;48.260;8.928;2022-12-07T08:44:13;14.80;;;7.40;;
1725;SDS011;41776;48.260;8.928;2022-12-07T08:46:40;13.23;;;6.80;;
1725;SDS011;41776;48.260;8.928;2022-12-07T08:49:10;13.57;;;6.80;;
1725;SDS011;41776;48.260;8.928;2022-12-07T08:51:40;13.10;;;6.73;;
1725;SDS011;41776;48.260;8.928;2022-12-07T08:54:11;15.97;;;7.40;;
1725;SDS011;41776;48.260;8.928;2022-12-07T08:56:43;15.20;;;7.10;;
1725;SDS011;41776;48.260;8.928;2022-12-07T08:59:12;12.97;;;6.40;;
1725;SDS011;41776;48.260;8.928;2022-12-07T09:01:40;14.87;;;7.07;;
1725;SDS011;41776;48.260;8.928;2022-12-07T09:04:07;15.17;;;6.93;;
1725;SDS011;41776;48.260;8.928;2022-12-07T09:06:34;14.90;;;7.33;;
1725;SDS011;41776;48.260;8.928;2022-12-07T09:09:02;15.40;;;6.87;;
1725;SDS011;41776;48.260;8.928;2022-12-07T09:11:30;10.83;;;6.07;;
1725;SDS011;41776;48.260;8.928;2022-12-07T09:13:58;12.60;;;6.10;;
1725;SDS011;41776;48.260;8.928;2022-12-07T09:16:27;15.80;;;8.07;;
1725;SDS011;41776;48.260;8.928;2022-12-07T09:18:53;10.60;;;5.90;;
1725;SDS011;41776;48.260;8.928;2022-12-07T09:21:20;12.27;;;5.80;;
1725;SDS011;41776;48.260;8.928;2022-12-07T09:23:46;10.63;;;5.70;;
1725;SDS011;41776;48.260;8.928;2022-12-07T09:26:14;9.60;;;4.87;;
1725;SDS011;41776;48.260;8.928;2022-12-07T09:28:41;11.30;;;5.63;;
1725;SDS011;41776;48.260;8.928;2022-12-07T09:31:08;12.00;;;5.93;;
1725;SDS011;41776;48.260;8.928;2022-12-07T09:33:34;12.63;;;5.57;;
1725;SDS011;41776;48.260;8.928;2022-12-07T09:36:01;8.47;;;4.70;;
1725;SDS011;41776;48.260;8.928;2022-12-07T09:38:29;14.33;;;5.63;;
1725;SDS011;41776;48.260;8.928;2022-12-07T09:40:57;12.03;;;5.83;;
1725;SDS011;41776;48.260;8.928;2022-12-07T09:43:35;12.57;;;6.00;;
1725;SDS011;41776;48.260;8.928;2022-12-07T09:46:02;14.93;;;6.83;;
1725;SDS011;41776;48.260;8.928;2022-12-07T09:48:30;10.43;;;5.57;;
1725;SDS011;41776;48.260;8.928;2022-12-07T09:50:58;11.23;;;6.30;;
1725;SDS011;41776;48.260;8.928;2022-12-07T09:53:27;10.70;;;4.73;;
1725;SDS011;41776;48.260;8.928;2022-12-07T09:55:56;9.20;;;5.40;;
1725;SDS011;41776;48.260;8.928;2022-12-07T09:58:23;11.87;;;5.27;;
1725;SDS011;41776;48.260;8.928;2022-12-07T10:00:55;10.60;;;5.60;;
1725;SDS011;41776;48.260;8.928;2022-12-07T10:03:23;12.33;;;5.70;;
1725;SDS011;41776;48.260;8.928;2022-12-07T10:05:50;10.70;;;6.00;;
1725;SDS011;41776;48.260;8.928;2022-12-07T10:08:18;11.27;;;5.63;;
1725;SDS011;41776;48.260;8.928;2022-12-07T10:10:49;6.90;;;3.97;;
1725;SDS011;41776;48.260;8.928;2022-12-07T10:13:18;3.43;;;2.37;;
1725;SDS011;41776;48.260;8.928;2022-12-07T10:15:47;4.87;;;2.87;;
1725;SDS011;41776;48.260;8.928;2022-12-07T10:21:11;12.40;;;6.27;;
1725;SDS011;41776;48.260;8.928;2022-12-07T10:23:40;11.20;;;5.97;;
1725;SDS011;41776;48.260;8.928;2022-12-07T10:26:21;12.27;;;6.77;;
1725;SDS011;41776;48.260;8.928;2022-12-07T10:28:53;9.73;;;5.43;;
1725;SDS011;41776;48.260;8.928;2022-12-07T10:31:21;12.33;;;5.77;;
1725;SDS011;41776;48.260;8.928;2022-12-07T10:33:51;10.60;;;5.87;;
1725;SDS011;41776;48.260;8.928;2022-12-07T10:36:20;13.60;;;6.20;;
1725;SDS011;41776;48.260;8.928;2022-12-07T10:38:49;9.63;;;4.87;;
1725;SDS011;41776;48.260;8.928;2022-12-07T10:41:19;9.77;;;5.47;;
1725;SDS011;41776;48.260;8.928;2022-12-07T10:43:46;9.10;;;5.00;;
1725;SDS011;41776;48.260;8.928;2022-12-07T10:52:32;11.20;;;5.30;;
1725;SDS011;41776;48.260;8.928;2022-12-07T10:55:14;12.03;;;5.83;;
1725;SDS011;41776;48.260;8.928;2022-12-07T10:57:50;11.20;;;5.57;;
1725;SDS011;41776;48.260;8.928;2022-12-07T11:00:29;9.87;;;5.30;;
1725;SDS011;41776;48.260;8.928;2022-12-07T11:06:07;12.60;;;5.33;;
1725;SDS011;41776;48.260;8.928;2022-12-07T11:08:47;13.40;;;5.43;;
1725;SDS011;41776;48.260;8.928;2022-12-07T11:11:28;10.43;;;5.47;;
1725;SDS011;41776;48.260;8.928;2022-12-07T11:14:02;8.77;;;5.00;;
1725;SDS011;41776;48.260;8.928;2022-12-07T11:16:44;8.27;;;4.63;;
1725;SDS011;41776;48.260;8.928;2022-12-07T11:22:17;9.13;;;4.93;;
1725;SDS011;41776;48.260;8.928;2022-12-07T11:24:50;8.77;;;4.63;;
1725;SDS011;41776;48.260;8.928;2022-12-07T11:27:25;8.70;;;4.70;;
1725;SDS011;41776;48.260;8.928;2022-12-07T11:30:02;7.10;;;3.97;;
1725;SDS011;41776;48.260;8.928;2022-12-07T11:32:49;8.10;;;4.13;;
1725;SDS011;41776;48.260;8.928;2022-12-07T11:35:31;11.47;;;4.57;;
1725;SDS011;41776;48.260;8.928;2022-12-07T11:38:07;7.90;;;4.07;;
1725;SDS011;41776;48.260;8.928;2022-12-07T11:40:39;7.20;;;3.93;;
1725;SDS011;41776;48.260;8.928;2022-12-07T11:43:12;8.17;;;4.30;;
1725;SDS011;41776;48.260;8.928;2022-12-07T11:45:44;7.20;;;4.07;;
1725;SDS011;41776;48.260;8.928;2022-12-07T11:48:15;6.17;;;3.80;;
1725;SDS011;41776;48.260;8.928;2022-12-07T11:50:48;7.13;;;3.87;;
1725;SDS011;41776;48.260;8.928;2022-12-07T11:53:19;6.47;;;3.50;;
1725;SDS011;41776;48.260;8.928;2022-12-07T11:55:52;7.10;;;4.07;;
1725;SDS011;41776;48.260;8.928;2022-12-07T11:58:28;8.00;;;4.03;;
1725;SDS011;41776;48.260;8.928;2022-12-07T12:01:08;6.97;;;3.90;;
1725;SDS011;41776;48.260;8.928;2022-12-07T12:03:40;6.67;;;3.80;;
1725;SDS011;41776;48.260;8.928;2022-12-07T12:06:10;7.13;;;3.97;;
1725;SDS011;41776;48.260;8.928;2022-12-07T12:08:38;7.47;;;3.90;;
1725;SDS011;41776;48.260;8.928;2022-12-07T12:11:12;6.57;;;3.60;;
1725;SDS011;41776;48.260;8.928;2022-12-07T12:14:00;7.17;;;3.97;;
1725;SDS011;41776;48.260;8.928;2022-12-07T12:16:56;6.47;;;3.30;;
1725;SDS011;41776;48.260;8.928;2022-12-07T12:19:34;5.57;;;3.23;;
1725;SDS011;41776;48.260;8.928;2022-12-07T12:22:10;7.53;;;3.77;;
1725;SDS011;41776;48.260;8.928;2022-12-07T12:24:41;8.07;;;3.03;;
1725;SDS011;41776;48.260;8.928;2022-12-07T12:27:15;8.60;;;3.50;;
1725;SDS011;41776;48.260;8.928;2022-12-07T12:29:50;6.10;;;3.30;;
1725;SDS011;41776;48.260;8.928;2022-12-07T12:32:20;7.10;;;3.40;;
1725;SDS011;41776;48.260;8.928;2022-12-07T12:34:57;7.80;;;3.47;;
1725;SDS011;41776;48.260;8.928;2022-12-07T12:37:39;6.13;;;3.30;;
1725;SDS011;41776;48.260;8.928;2022-12-07T12:40:37;5.03;;;3.10;;
1725;SDS011;41776;48.260;8.928;2022-12-07T12:43:14;7.93;;;3.50;;
1725;SDS011;41776;48.260;8.928;2022-12-07T12:49:32;7.53;;;3.80;;
1725;SDS011;41776;48.260;8.928;2022-12-07T12:52:01;5.57;;;3.30;;
1725;SDS011;41776;48.260;8.928;2022-12-07T12:54:57;7.53;;;3.10;;
1725;SDS011;41776;48.260;8.928;2022-12-07T12:57:27;4.63;;;2.70;;
1725;SDS011;41776;48.260;8.928;2022-12-07T12:59:57;4.83;;;2.70;;
1725;SDS011;41776;48.260;8.928;2022-12-07T13:02:25;5.20;;;2.97;;
1725;SDS011;41776;48.260;8.928;2022-12-07T13:04:55;5.60;;;2.40;;
1725;SDS011;41776;48.260;8.928;2022-12-07T13:10:33;7.10;;;2.77;;
1725;SDS011;41776;48.260;8.928;2022-12-07T13:13:03;4.10;;;2.70;;
1725;SDS011;41776;48.260;8.928;2022-12-07T13:15:52;4.20;;;2.80;;
1725;SDS011;41776;48.260;8.928;2022-12-07T13:18:23;7.73;;;2.70;;
1725;SDS011;41776;48.260;8.928;2022-12-07T13:20:53;4.73;;;2.83;;
1725;SDS011;41776;48.260;8.928;2022-12-07T13:23:22;6.37;;;3.40;;
1725;SDS011;41776;48.260;8.928;2022-12-07T13:25:58;4.03;;;2.80;;
1725;SDS011;41776;48.260;8.928;2022-12-07T13:28:33;4.57;;;2.57;;
1725;SDS011;41776;48.260;8.928;2022-12-07T13:31:16;5.37;;;2.57;;
1725;SDS011;41776;48.260;8.928;2022-12-07T13:33:51;4.73;;;2.70;;
1725;SDS011;41776;48.260;8.928;2022-12-07T13:36:19;5.97;;;3.10;;
1725;SDS011;41776;48.260;8.928;2022-12-07T13:38:53;4.47;;;2.40;;
1725;SDS011;41776;48.260;8.928;2022-12-07T13:41:22;3.37;;;2.07;;
1725;SDS011;41776;48.260;8.928;2022-12-07T13:43:53;3.77;;;2.10;;
1725;SDS011;41776;48.260;8.928;2022-12-07T13:46:34;3.97;;;1.77;;
1725;SDS011;41776;48.260;8.928;2022-12-07T13:49:21;3.10;;;2.20;;
1725;SDS011;41776;48.260;8.928;2022-12-07T13:51:49;6.40;;;2.17;;
1725;SDS011;41776;48.260;8.928;2022-12-07T13:54:16;3.17;;;2.13;;
1725;SDS011;41776;48.260;8.928;2022-12-07T13:56:46;3.67;;;2.20;;
1725;SDS011;41776;48.260;8.928;2022-12-07T13:59:18;3.27;;;2.00;;
1725;SDS011;41776;48.260;8.928;2022-12-07T14:01:48;4.03;;;2.00;;
1725;SDS011;41776;48.260;8.928;2022-12-07T14:04:16;3.70;;;2.63;;
1725;SDS011;41776;48.260;8.928;2022-12-07T14:06:59;5.23;;;2.53;;
1725;SDS011;41776;48.260;8.928;2022-12-07T14:09:27;6.77;;;3.13;;
1725;SDS011;41776;48.260;8.928;2022-12-07T14:11:55;7.47;;;3.43;;
1725;SDS011;41776;48.260;8.928;2022-12-07T14:14:24;7.90;;;3.80;;
1725;SDS011;41776;48.260;8.928;2022-12-07T14:16:58;6.83;;;3.70;;
1725;SDS011;41776;48.260;8.928;2022-12-07T14:19:40;7.20;;;3.47;;
1725;SDS011;41776;48.260;8.928;2022-12-07T14:22:17;6.70;;;3.53;;
1725;SDS011;41776;48.260;8.928;2022-12-07T14:24:49;5.97;;;3.33;;
1725;SDS011;41776;48.260;8.928;2022-12-07T14:27:17;4.50;;;2.87;;
1725;SDS011;41776;48.260;8.928;2022-12-07T14:29:47;5.47;;;2.93;;
1725;SDS011;41776;48.260;8.928;2022-12-07T14:32:20;6.37;;;3.20;;
1725;SDS011;41776;48.260;8.928;2022-12-07T14:34:53;7.13;;;3.30;;
1725;SDS011;41776;48.260;8.928;2022-12-07T14:37:21;10.03;;;3.30;;
1725;SDS011;41776;48.260;8.928;2022-12-07T14:39:47;5.67;;;3.10;;
1725;SDS011;41776;48.260;8.928;2022-12-07T14:42:14;5.47;;;3.03;;
1725;SDS011;41776;48.260;8.928;2022-12-07T14:44:44;6.53;;;3.57;;
1725;SDS011;41776;48.260;8.928;2022-12-07T14:47:11;7.13;;;3.50;;
1725;SDS011;41776;48.260;8.928;2022-12-07T14:49:39;7.00;;;3.53;;
1725;SDS011;41776;48.260;8.928;2022-12-07T14:52:06;9.17;;;3.43;;
1725;SDS011;41776;48.260;8.928;2022-12-07T14:54:40;6.40;;;3.80;;
1725;SDS011;41776;48.260;8.928;2022-12-07T14:57:08;6.57;;;3.77;;
1725;SDS011;41776;48.260;8.928;2022-12-07T14:59:37;6.77;;;3.73;;
1725;SDS011;41776;48.260;8.928;2022-12-07T15:02:04;6.00;;;3.60;;
1725;SDS011;41776;48.260;8.928;2022-12-07T15:04:31;9.97;;;4.37;;
1725;SDS011;41776;48.260;8.928;2022-12-07T15:07:00;8.20;;;4.00;;
1725;SDS011;41776;48.260;8.928;2022-12-07T15:09:27;6.97;;;3.50;;
1725;SDS011;41776;48.260;8.928;2022-12-07T15:11:54;5.87;;;3.23;;
1725;SDS011;41776;48.260;8.928;2022-12-07T15:14:21;9.20;;;3.37;;
1725;SDS011;41776;48.260;8.928;2022-12-07T15:16:47;6.80;;;3.70;;
1725;SDS011;41776;48.260;8.928;2022-12-07T15:19:15;8.03;;;3.93;;
1725;SDS011;41776;48.260;8.928;2022-12-07T15:21:43;10.17;;;3.90;;
1725;SDS011;41776;48.260;8.928;2022-12-07T15:24:12;10.77;;;4.10;;
1725;SDS011;41776;48.260;8.928;2022-12-07T15:26:39;10.17;;;3.87;;
1725;SDS011;41776;48.260;8.928;2022-12-07T15:29:06;6.70;;;3.67;;